Time;durP1;ratioP1;P1;durP2;ratioP2;P2;SDS_P1;SDS_P2;PMS_P1;PMS_P2;Temp;Humidity;BMP_temperature;BMP_pressure;BME280_temperature;BME280_humidity;BME280_pressure;Samples;Min_cycle;Max_cycle;Signal;HPM_P1;HPM_P2
2023/06/24 00:00:43;;;;;;;22.33;19.77;;;;;;;19.22;100.00;99856.03;5054274;28;20025;-84
2023/06/24 00:03:09;;;;;;;24.98;21.58;;;;;;;19.13;100.00;99844.38;5054625;28;20029;-83
2023/06/24 00:05:34;;;;;;;22.20;19.40;;;;;;;19.28;100.00;99869.59;5054086;28;20021;-83
2023/06/24 00:08:01;;;;;;;22.55;18.83;;;;;;;19.23;100.00;99855.09;5054259;28;20025;-83
2023/06/24 00:10:27;;;;;;;25.75;18.02;;;;;;;19.28;100.00;99874.88;5053698;28;20063;-83
2023/06/24 00:12:53;;;;;;;19.58;17.55;;;;;;;19.33;100.00;99880.63;5052860;28;20020;-83
2023/06/24 00:15:18;;;;;;;20.17;16.80;;;;;;;19.18;100.00;99858.91;5054250;28;20021;-83
2023/06/24 00:17:43;;;;;;;19.70;17.40;;;;;;;19.10;100.00;99850.75;5054008;28;20093;-83
2023/06/24 00:20:13;;;;;;;17.55;15.75;;;;;;;19.22;100.00;99878.00;5053949;28;20025;-83
2023/06/24 00:22:43;;;;;;;17.00;15.18;;;;;;;19.01;100.00;99863.84;5054053;28;20028;-83
2023/06/24 00:25:09;;;;;;;18.20;16.38;;;;;;;19.08;100.00;99870.31;5054174;28;20041;-83
2023/06/24 00:27:35;;;;;;;15.93;13.70;;;;;;;19.17;100.00;99881.00;5054155;28;20032;-83
2023/06/24 00:30:00;;;;;;;17.70;14.60;;;;;;;19.10;100.00;99871.06;5053846;28;20488;-83
2023/06/24 00:32:25;;;;;;;18.42;14.18;;;;;;;19.08;100.00;99870.31;5054186;28;20033;-83
2023/06/24 00:34:50;;;;;;;14.27;12.80;;;;;;;19.08;100.00;99883.50;5053616;28;20091;-83
2023/06/24 00:37:16;;;;;;;14.20;12.23;;;;;;;19.02;100.00;99869.00;5052566;28;20045;-83
2023/06/24 00:39:41;;;;;;;13.07;11.68;;;;;;;19.16;100.00;99889.03;5053802;28;20029;-83
2023/06/24 00:42:07;;;;;;;12.75;11.35;;;;;;;19.20;100.00;99887.84;5054147;28;20025;-83
2023/06/24 00:44:32;;;;;;;12.50;10.90;;;;;;;19.17;100.00;99888.06;5053759;28;20049;-83
2023/06/24 00:46:57;;;;;;;12.65;10.75;;;;;;;19.12;100.00;99885.78;5053514;28;20063;-83
2023/06/24 00:49:23;;;;;;;10.27;9.30;;;;;;;18.97;100.00;99875.63;5053613;28;20045;-83
2023/06/24 00:51:50;;;;;;;10.07;7.45;;;;;;;19.08;100.00;99902.00;5053183;28;20060;-83
2023/06/24 00:54:19;;;;;;;6.60;6.00;;;;;;;18.90;100.00;99904.28;5053586;28;20098;-83
2023/06/24 00:56:45;;;;;;;6.55;5.85;;;;;;;18.75;100.00;99893.09;5053651;28;20029;-83
2023/06/24 00:59:14;;;;;;;6.65;6.00;;;;;;;18.62;100.00;99895.78;5053437;28;20041;-83
2023/06/24 01:01:40;;;;;;;9.05;7.30;;;;;;;18.69;100.00;99919.91;5053177;28;20032;-84
2023/06/24 01:04:06;;;;;;;8.18;7.38;;;;;;;18.51;100.00;99913.41;5053166;28;20041;-83
2023/06/24 01:06:32;;;;;;;9.57;8.65;;;;;;;18.32;100.00;99927.09;5053320;28;20425;-83
2023/06/24 01:09:00;;;;;;;9.30;8.18;;;;;;;18.32;100.00;99921.84;5053109;28;20025;-83
2023/06/24 01:11:31;;;;;;;11.40;9.52;;;;;;;18.25;100.00;99916.19;5053227;28;20025;-83
2023/06/24 01:13:57;;;;;;;11.20;9.27;;;;;;;18.07;100.00;99907.81;5052746;28;20025;-83
2023/06/24 01:16:28;;;;;;;10.45;9.18;;;;;;;18.05;100.00;99937.91;5051845;28;20025;-83
2023/06/24 01:19:13;;;;;;;13.45;10.57;;;;;;;17.87;100.00;99921.63;5052697;28;20021;-83
2023/06/24 01:22:11;;;;;;;12.85;10.98;;;;;;;17.83;100.00;99942.09;5052794;28;20029;-84
2023/06/24 01:24:55;;;;;;;12.88;10.35;;;;;;;17.62;100.00;99946.25;5052451;28;20039;-83
2023/06/24 01:27:52;;;;;;;11.73;10.07;;;;;;;17.31;100.00;99908.03;5053099;28;20487;-83
2023/06/24 01:30:46;;;;;;;12.13;10.82;;;;;;;17.25;100.00;99917.22;5052948;28;20029;-83
2023/06/24 01:33:19;;;;;;;11.55;9.50;;;;;;;17.44;100.00;99956.25;5050245;28;20037;-83
2023/06/24 01:35:47;;;;;;;16.08;11.48;;;;;;;17.42;100.00;99959.00;5049733;28;20041;-85
2023/06/24 01:38:23;;;;;;;11.88;9.73;;;;;;;17.43;100.00;99963.31;5050229;28;20094;-83
2023/06/24 01:40:49;;;;;;;11.27;9.85;;;;;;;17.46;100.00;99976.28;5049973;28;20538;-83
2023/06/24 01:43:17;;;;;;;11.82;10.57;;;;;;;17.43;100.00;99965.13;5050125;28;20544;-83
2023/06/24 01:45:47;;;;;;;11.98;10.77;;;;;;;17.35;100.00;99975.34;5049762;28;20033;-83
2023/06/24 01:48:22;;;;;;;9.52;8.55;;;;;;;17.21;100.00;99949.97;5010303;28;20104;-83
2023/06/24 01:51:17;;;;;;;11.32;10.13;;;;;;;17.36;100.00;99988.41;5010030;28;20520;-83
2023/06/24 01:53:48;;;;;;;14.73;10.43;;;;;;;17.35;100.00;99985.88;4951697;29;20043;-83
2023/06/24 01:56:15;;;;;;;11.75;10.13;;;;;;;17.09;100.00;99961.34;4951894;29;20031;-83
2023/06/24 01:58:43;;;;;;;10.25;9.15;;;;;;;17.26;100.00;99991.78;4951803;29;20087;-83
2023/06/24 02:01:09;;;;;;;12.80;9.95;;;;;;;17.06;100.00;99953.66;4952066;29;20059;-83
2023/06/24 02:03:36;;;;;;;11.43;8.93;;;;;;;17.27;100.00;99996.09;4951765;29;20039;-83
2023/06/24 02:06:02;;;;;;;12.00;8.35;;;;;;;16.98;100.00;99956.84;4951480;29;20117;-83
2023/06/24 02:08:35;;;;;;;12.02;9.52;;;;;;;17.24;100.00;100007.69;4951734;29;20053;-83
2023/06/24 02:11:02;;;;;;;11.15;9.75;;;;;;;16.94;100.00;99969.34;4936261;29;20150;-83
2023/06/24 02:13:32;;;;;;;9.70;8.57;;;;;;;17.12;100.00;100003.25;4932473;29;20044;-83
2023/06/24 02:15:59;;;;;;;11.07;9.07;;;;;;;17.18;100.00;100006.28;4932264;29;20169;-83
2023/06/24 02:18:27;;;;;;;11.70;9.38;;;;;;;16.97;100.00;99981.44;4942289;28;20557;-83
2023/06/24 02:20:54;;;;;;;13.52;9.38;;;;;;;17.09;100.00;100003.44;4990333;28;20061;-83
2023/06/24 02:23:21;;;;;;;9.40;8.02;;;;;;;16.79;100.00;99978.25;4990489;28;20113;-83
2023/06/24 02:25:47;;;;;;;10.30;8.43;;;;;;;16.78;100.00;99988.91;4990103;28;20030;-83
2023/06/24 02:28:14;;;;;;;8.85;7.95;;;;;;;16.93;100.00;100006.28;4990285;28;20045;-83
2023/06/24 02:30:40;;;;;;;10.52;8.68;;;;;;;16.95;100.00;100020.19;5026017;28;20056;-83
2023/06/24 02:33:06;;;;;;;10.05;8.95;;;;;;;16.84;100.00;100002.47;5051876;28;20055;-83
2023/06/24 02:35:31;;;;;;;10.63;8.52;;;;;;;16.74;100.00;99996.16;5051485;28;20048;-83
2023/06/24 02:37:57;;;;;;;9.38;8.32;;;;;;;16.95;100.00;100031.53;5051307;28;20481;-83
2023/06/24 02:40:22;;;;;;;9.63;8.52;;;;;;;16.95;100.00;100031.53;5051951;28;20497;-83
2023/06/24 02:42:48;;;;;;;10.07;8.50;;;;;;;16.91;100.00;100022.16;5051609;28;20036;-83
2023/06/24 02:45:14;;;;;;;12.07;8.73;;;;;;;16.99;100.00;100032.19;5051797;28;20111;-83
2023/06/24 02:47:44;;;;;;;16.02;9.95;;;;;;;16.91;100.00;100016.91;5051765;28;20025;-83
2023/06/24 02:50:11;;;;;;;11.50;9.13;;;;;;;17.05;100.00;100029.13;5051618;28;20087;-83
2023/06/24 02:52:37;;;;;;;11.95;10.65;;;;;;;17.11;100.00;100046.31;5051597;28;20392;-83
2023/06/24 02:55:03;;;;;;;11.23;10.02;;;;;;;16.95;100.00;100031.53;5051540;28;20025;-83
2023/06/24 02:57:29;;;;;;;10.50;9.50;;;;;;;16.84;100.00;100015.63;5051675;28;20039;-82
2023/06/24 02:59:55;;;;;;;14.05;10.18;;;;;;;17.01;100.00;100040.81;5051416;28;20029;-83
2023/06/24 03:02:22;;;;;;;11.50;10.32;;;;;;;17.03;100.00;100046.81;5051708;28;20064;-83
2023/06/24 03:04:49;;;;;;;11.77;9.63;;;;;;;17.02;100.00;100055.66;5049905;28;20400;-83
2023/06/24 03:07:16;;;;;;;13.93;10.18;;;;;;;16.91;100.00;100034.50;5051441;28;20048;-83
2023/06/24 03:09:41;;;;;;;12.18;10.27;;;;;;;17.03;100.00;100067.03;5051621;28;20025;-83
2023/06/24 03:12:07;;;;;;;10.25;9.15;;;;;;;16.92;100.00;100050.16;5051679;28;20037;-83
2023/06/24 03:14:33;;;;;;;11.48;9.48;;;;;;;16.93;100.00;100041.31;5051540;28;20029;-83
2023/06/24 03:16:58;;;;;;;10.32;9.32;;;;;;;17.02;100.00;100057.44;5051561;28;20483;-83
2023/06/24 03:19:23;;;;;;;11.82;9.50;;;;;;;16.86;100.00;100042.69;5051471;28;20025;-83
2023/06/24 03:21:49;;;;;;;10.55;9.15;;;;;;;17.02;100.00;100068.81;5051375;28;20061;-83
2023/06/24 03:24:14;;;;;;;16.40;10.82;;;;;;;17.04;100.00;100079.25;5051523;28;20029;-83
2023/06/24 03:26:40;;;;;;;12.65;10.68;;;;;;;16.93;100.00;100058.88;5051725;28;20491;-83
2023/06/24 03:29:07;;;;;;;10.50;8.57;;;;;;;16.99;100.00;100071.66;5051163;28;20119;-83
2023/06/24 03:31:33;;;;;;;9.80;8.82;;;;;;;17.07;100.00;100092.22;5051332;28;20057;-83
2023/06/24 03:33:58;;;;;;;9.98;7.93;;;;;;;17.09;100.00;100088.50;5051180;28;20064;-83
2023/06/24 03:36:24;;;;;;;9.65;8.70;;;;;;;16.88;100.00;100059.19;5051074;28;20084;-83
2023/06/24 03:38:50;;;;;;;9.63;8.38;;;;;;;17.00;100.00;100086.50;5049876;28;20465;-83
2023/06/24 03:41:15;;;;;;;7.85;6.88;;;;;;;16.96;100.00;100090.28;5050017;28;20021;-83
2023/06/24 03:43:41;;;;;;;8.13;7.35;;;;;;;16.81;100.00;100068.47;5051253;28;20028;-83
2023/06/24 03:46:07;;;;;;;8.00;6.80;;;;;;;16.89;100.00;100096.88;5052058;28;20033;-83
2023/06/24 03:48:33;;;;;;;8.60;6.65;;;;;;;16.95;100.00;100112.28;5054712;28;20041;-83
2023/06/24 03:50:58;;;;;;;7.75;6.95;;;;;;;16.88;100.00;100101.28;5054414;28;20091;-83
2023/06/24 03:53:23;;;;;;;7.20;6.38;;;;;;;16.82;100.00;100106.97;5053523;28;20032;-83
2023/06/24 03:55:49;;;;;;;7.53;6.30;;;;;;;16.78;100.00;100092.34;5054433;28;20029;-83
2023/06/24 03:58:16;;;;;;;7.25;6.05;;;;;;;16.57;100.00;100076.13;5054954;28;20031;-83
2023/06/24 04:00:43;;;;;;;8.80;6.72;;;;;;;16.63;100.00;100093.28;5054535;28;20074;-83
2023/06/24 04:03:09;;;;;;;6.70;5.78;;;;;;;16.66;100.00;100095.72;5054527;28;20049;-83
2023/06/24 04:05:35;;;;;;;6.50;5.85;;;;;;;16.71;100.00;100125.19;5054298;28;20052;-83
2023/06/24 04:08:00;;;;;;;8.30;6.57;;;;;;;16.61;100.00;100116.22;5054307;28;20040;-83
2023/06/24 04:10:26;;;;;;;8.40;6.50;;;;;;;16.45;100.00;100084.81;5053167;28;20033;-83
2023/06/24 04:12:51;;;;;;;9.65;6.50;;;;;;;16.59;100.00;100113.66;5054118;28;20489;-83
2023/06/24 04:15:17;;;;;;;7.82;6.20;;;;;;;16.25;100.00;100077.34;5054212;28;20025;-83
2023/06/24 04:17:42;;;;;;;8.70;6.13;;;;;;;16.46;100.00;100113.59;5054075;28;20032;-83
2023/06/24 04:20:11;;;;;;;8.75;5.57;;;;;;;16.43;100.00;100126.97;5054105;28;20514;-83
2023/06/24 04:22:37;;;;;;;7.63;6.45;;;;;;;16.28;100.00;100106.91;5053973;28;20040;-83
2023/06/24 04:25:05;;;;;;;6.57;5.97;;;;;;;16.28;100.00;100124.47;5053920;28;20036;-83
2023/06/24 04:27:31;;;;;;;7.75;6.30;;;;;;;16.17;100.00;100112.81;5054081;28;20025;-83
2023/06/24 04:29:56;;;;;;;8.00;6.22;;;;;;;16.30;100.00;100131.28;5054084;28;20108;-83
2023/06/24 04:32:21;;;;;;;10.35;6.10;;;;;;;16.31;100.00;100130.38;5052906;28;20029;-83
2023/06/24 04:34:47;;;;;;;8.93;6.68;;;;;;;16.44;100.00;100140.97;5054070;28;20052;-83
2023/06/24 04:37:12;;;;;;;7.43;6.70;;;;;;;16.38;100.00;100125.56;5054061;28;20406;-83
2023/06/24 04:39:38;;;;;;;6.72;6.03;;;;;;;16.37;100.00;100137.84;5053850;28;20484;-83
2023/06/24 04:42:04;;;;;;;8.60;7.78;;;;;;;16.16;100.00;100121.66;5052307;28;20032;-83
2023/06/24 04:44:29;;;;;;;8.70;7.40;;;;;;;16.25;100.00;100127.28;5053951;28;20021;-83
2023/06/24 04:46:54;;;;;;;7.40;6.70;;;;;;;16.18;100.00;100119.78;5053478;28;20025;-83
2023/06/24 04:49:20;;;;;;;9.02;7.75;;;;;;;16.21;100.00;100121.34;5053473;28;20031;-83
2023/06/24 04:51:45;;;;;;;6.28;5.68;;;;;;;16.24;100.00;100128.22;5053768;28;20039;-83
2023/06/24 04:54:12;;;;;;;7.00;5.60;;;;;;;16.20;100.00;100133.66;5053187;28;20024;-83
2023/06/24 04:56:37;;;;;;;8.15;6.22;;;;;;;16.22;100.00;100128.28;5053410;28;20453;-83
2023/06/24 04:59:03;;;;;;;7.57;6.45;;;;;;;16.39;100.00;100158.78;5053215;28;20056;-83
2023/06/24 05:01:28;;;;;;;8.60;6.97;;;;;;;16.48;100.00;100165.28;5051981;28;20550;-83
2023/06/24 05:03:53;;;;;;;7.93;5.88;;;;;;;16.59;100.00;100165.44;5053335;28;20462;-83
2023/06/24 05:06:19;;;;;;;7.63;6.20;;;;;;;16.35;100.00;100121.34;5053184;28;20031;-83
2023/06/24 05:08:44;;;;;;;9.25;6.15;;;;;;;16.59;100.00;100165.44;5053281;28;20048;-83
2023/06/24 05:11:09;;;;;;;6.65;6.00;;;;;;;16.49;100.00;100153.81;5051760;28;20036;-83
2023/06/24 05:13:35;;;;;;;7.18;6.47;;;;;;;16.66;100.00;100172.84;5053062;28;20087;-83
2023/06/24 05:16:00;;;;;;;6.57;5.97;;;;;;;16.65;100.00;100175.56;5053105;28;20033;-83
2023/06/24 05:18:25;;;;;;;6.43;5.82;;;;;;;16.61;100.00;100163.56;5052933;28;20039;-83
2023/06/24 05:20:50;;;;;;;8.82;5.50;;;;;;;16.48;100.00;100163.50;5052927;28;20029;-83
2023/06/24 05:23:16;;;;;;;9.70;6.78;;;;;;;16.56;100.00;100170.88;5051901;28;20040;-83
2023/06/24 05:25:41;;;;;;;7.68;6.97;;;;;;;16.63;100.00;100186.16;5051708;28;20029;-83
2023/06/24 05:28:06;;;;;;;7.63;6.18;;;;;;;16.57;100.00;100164.69;5052643;28;20036;-83
2023/06/24 05:30:32;;;;;;;7.93;7.00;;;;;;;16.77;100.00;100192.38;5052841;28;20036;-83
2023/06/24 05:32:57;;;;;;;8.23;7.43;;;;;;;16.63;100.00;100161.66;5052467;28;20028;-83
2023/06/24 05:35:22;;;;;;;8.23;7.28;;;;;;;16.83;100.00;100195.47;5051577;28;20028;-83
2023/06/24 05:37:48;;;;;;;7.82;7.03;;;;;;;16.80;100.00;100176.41;5052822;28;20041;-83
2023/06/24 05:40:13;;;;;;;7.63;6.70;;;;;;;16.91;100.00;100193.19;5052505;28;20025;-83
2023/06/24 05:42:39;;;;;;;8.32;7.50;;;;;;;16.89;100.00;100183.69;5052675;28;20086;-83
2023/06/24 05:45:06;;;;;;;9.15;6.93;;;;;;;17.09;100.00;100203.47;5052537;28;20055;-83
2023/06/24 05:47:31;;;;;;;8.77;7.13;;;;;;;17.11;100.00;100193.72;5052382;28;20032;-82
2023/06/24 05:49:57;;;;;;;9.82;7.68;;;;;;;16.97;100.00;100165.63;5052492;28;20025;-83
2023/06/24 05:52:23;;;;;;;8.80;7.90;;;;;;;17.20;100.00;100208.91;5052626;28;20021;-84
2023/06/24 05:54:48;;;;;;;9.48;8.00;;;;;;;17.07;100.00;100181.69;5052325;28;20029;-84
2023/06/24 05:57:14;;;;;;;9.10;7.50;;;;;;;17.17;100.00;100198.56;5052148;28;20103;-83
2023/06/24 05:59:39;;;;;;;12.00;7.45;;;;;;;17.21;100.00;100198.25;5052350;28;20104;-83
2023/06/24 06:02:05;;;;;;;9.45;7.50;;;;;;;17.26;100.00;100194.47;5051891;28;20067;-83
2023/06/24 06:04:30;;;;;;;8.85;7.95;;;;;;;17.06;100.00;100165.03;5052425;28;20071;-83
2023/06/24 06:06:56;;;;;;;9.52;7.82;;;;;;;17.37;100.00;100205.16;5051964;28;20433;-83
2023/06/24 06:09:22;;;;;;;9.45;7.57;;;;;;;17.29;100.00;100189.84;5051820;28;20032;-83
2023/06/24 06:11:47;;;;;;;10.85;8.15;;;;;;;17.38;100.00;100198.94;5052068;28;20112;-83
2023/06/24 06:14:13;;;;;;;9.80;8.10;;;;;;;17.43;100.00;100202.09;5050516;28;20421;-83
2023/06/24 06:16:38;;;;;;;10.63;8.50;;;;;;;17.41;100.00;100193.47;5051918;28;20029;-83
2023/06/24 06:19:04;;;;;;;12.80;9.40;;;;;;;17.52;100.00;100212.03;5051909;28;20028;-83
2023/06/24 06:21:29;;;;;;;14.38;8.20;;;;;;;17.29;100.00;100170.59;5051053;28;20033;-83
2023/06/24 06:23:55;;;;;;;9.10;8.20;;;;;;;17.56;100.00;100215.31;5051648;28;20040;-83
2023/06/24 06:26:21;;;;;;;9.85;8.85;;;;;;;17.41;100.00;100186.41;5051945;28;20389;-83
2023/06/24 06:28:47;;;;;;;11.27;9.48;;;;;;;17.53;100.00;100203.19;5051842;28;20071;-83
2023/06/24 06:31:13;;;;;;;10.30;8.88;;;;;;;17.70;100.00;100229.25;5051568;28;20461;-83
2023/06/24 06:33:38;;;;;;;10.27;9.27;;;;;;;17.66;100.00;100229.56;5051959;28;20033;-83
2023/06/24 06:36:04;;;;;;;13.00;9.77;;;;;;;17.60;100.00;100219.41;5051611;28;20041;-83
2023/06/24 06:38:29;;;;;;;11.63;10.43;;;;;;;17.46;100.00;100200.13;5051894;28;20028;-83
2023/06/24 06:40:55;;;;;;;11.38;10.02;;;;;;;17.45;100.00;100203.69;5051769;28;20057;-83
2023/06/24 06:43:21;;;;;;;11.82;10.32;;;;;;;17.50;100.00;100203.41;5050327;28;20029;-83
2023/06/24 06:45:46;;;;;;;12.07;10.40;;;;;;;17.61;100.00;100221.09;5050341;28;20120;-83
2023/06/24 06:48:12;;;;;;;10.98;9.88;;;;;;;17.70;100.00;100231.03;5051424;28;20580;-83
2023/06/24 06:50:37;;;;;;;12.32;9.55;;;;;;;17.51;100.00;100193.69;5052037;28;20025;-83
2023/06/24 06:53:02;;;;;;;13.48;10.98;;;;;;;17.69;100.00;100224.06;5051387;28;20512;-83
2023/06/24 06:55:28;;;;;;;13.55;11.15;;;;;;;17.70;100.00;100220.50;5051570;28;20036;-83
2023/06/24 06:57:53;;;;;;;12.25;11.05;;;;;;;17.69;100.00;100210.91;5051660;28;20025;-83
2023/06/24 07:00:19;;;;;;;12.40;11.10;;;;;;;17.77;100.00;100223.59;5049955;28;20362;-83
2023/06/24 07:02:44;;;;;;;11.90;10.65;;;;;;;17.62;100.00;100192.03;5051809;28;20028;-83
2023/06/24 07:05:09;;;;;;;11.18;10.07;;;;;;;17.75;100.00;100207.06;5051433;28;20120;-83
2023/06/24 07:07:37;;;;;;;11.40;10.30;;;;;;;17.92;100.00;100236.59;5051788;28;20029;-83
2023/06/24 07:10:03;;;;;;;13.25;11.50;;;;;;;17.85;100.00;100214.22;5051528;28;20028;-83
2023/06/24 07:12:28;;;;;;;11.23;10.02;;;;;;;17.76;100.00;100187.66;5051509;28;20090;-83
2023/06/24 07:14:54;;;;;;;13.18;11.23;;;;;;;18.00;100.00;100216.78;5051280;28;20536;-83
2023/06/24 07:17:19;;;;;;;14.38;12.20;;;;;;;18.08;100.00;100230.28;5051387;28;20057;-83
2023/06/24 07:19:44;;;;;;;12.38;10.68;;;;;;;18.15;100.00;100226.25;5051362;28;20025;-83
2023/06/24 07:22:10;;;;;;;12.38;11.07;;;;;;;18.23;100.00;100237.13;5053989;28;20023;-83
2023/06/24 07:24:35;;;;;;;13.45;10.85;;;;;;;18.14;100.00;100209.59;5053996;28;20498;-83
2023/06/24 07:27:01;;;;;;;13.05;11.00;;;;;;;18.22;100.00;100216.13;5055021;28;20025;-83
2023/06/24 07:29:26;;;;;;;11.60;10.07;;;;;;;18.37;100.00;100231.75;5052668;28;20031;-83
2023/06/24 07:31:51;;;;;;;10.93;9.82;;;;;;;18.34;100.00;100225.84;5038345;28;20021;-84
2023/06/24 07:34:17;;;;;;;11.25;10.07;;;;;;;18.35;100.00;100223.09;5034715;28;20025;-84
2023/06/24 07:36:42;;;;;;;11.25;10.02;;;;;;;18.39;100.00;100229.00;5033661;28;20083;-84
2023/06/24 07:39:07;;;;;;;11.73;10.05;;;;;;;18.41;100.00;100221.78;5033528;28;20103;-84
2023/06/24 07:41:33;;;;;;;11.30;9.82;;;;;;;18.50;100.00;100237.00;5035007;28;20421;-84
2023/06/24 07:43:58;;;;;;;11.63;10.20;;;;;;;18.42;100.00;100215.59;5034934;28;20604;-84
2023/06/24 07:46:26;;;;;;;11.65;10.43;;;;;;;18.59;100.00;100249.53;5034602;28;20029;-84
2023/06/24 07:48:52;;;;;;;12.18;10.70;;;;;;;18.65;100.00;100245.63;5034998;28;20025;-84
2023/06/24 07:51:18;;;;;;;11.25;10.13;;;;;;;18.69;100.00;100247.97;5034698;28;20025;-84
2023/06/24 07:53:43;;;;;;;12.48;10.25;;;;;;;18.56;100.00;100223.38;5034813;28;20513;-84
2023/06/24 07:56:08;;;;;;;11.68;10.57;;;;;;;18.70;100.00;100239.09;5033220;28;20152;-84
2023/06/24 07:58:35;;;;;;;13.18;11.80;;;;;;;18.83;100.00;100246.13;5034904;28;20060;-83
2023/06/24 08:01:00;;;;;;;14.75;13.10;;;;;;;18.77;100.00;100214.91;5034921;28;20075;-83
2023/06/24 08:03:25;;;;;;;14.13;12.73;;;;;;;19.02;100.00;100249.16;5034573;28;20385;-83
2023/06/24 08:05:50;;;;;;;16.23;14.65;;;;;;;18.93;100.00;100213.69;5034674;28;20033;-83
2023/06/24 08:08:18;;;;;;;16.10;14.43;;;;;;;19.11;100.00;100230.00;5034311;28;20029;-84
2023/06/24 08:10:43;;;;;;;15.95;14.35;;;;;;;19.18;100.00;100231.25;5043927;28;20040;-83
2023/06/24 08:13:08;;;;;;;16.38;14.82;;;;;;;19.17;100.00;100213.72;5053724;28;20021;-83
2023/06/24 08:15:34;;;;;;;16.35;14.63;;;;;;;19.16;100.00;100201.44;5063013;28;20032;-84
2023/06/24 08:17:59;;;;;;;15.80;14.23;;;;;;;19.32;100.00;100234.66;5073961;28;20020;-84
2023/06/24 08:20:25;;;;;;;16.75;13.88;;;;;;;19.29;100.00;100229.59;5073646;28;20035;-84
2023/06/24 08:22:51;;;;;;;15.70;14.10;;;;;;;19.16;100.00;100203.25;5072633;28;20028;-84
2023/06/24 08:25:16;;;;;;;15.52;13.98;;;;;;;19.39;100.00;100239.38;5073624;28;20046;-84
2023/06/24 08:27:46;;;;;;;16.08;14.32;;;;;;;19.36;100.00;100234.31;5073658;28;20035;-84
2023/06/24 08:30:12;;;;;;;15.77;13.90;;;;;;;19.37;100.00;100241.28;5041249;28;20117;-84
2023/06/24 08:32:37;;;;;;;15.50;14.00;;;;;;;19.39;100.00;100243.84;5043522;28;20057;-85
2023/06/24 08:35:03;;;;;;;15.27;13.68;;;;;;;19.34;100.00;100236.25;5039185;28;20622;-84
2023/06/24 08:37:28;;;;;;;15.05;13.48;;;;;;;19.41;100.00;100255.94;5053526;28;20064;-84
2023/06/24 08:39:53;;;;;;;17.00;15.00;;;;;;;19.32;100.00;100248.72;5053687;28;20028;-84
2023/06/24 08:42:19;;;;;;;15.80;13.77;;;;;;;19.32;100.00;100261.91;5053515;28;20033;-84
2023/06/24 08:44:44;;;;;;;14.52;12.98;;;;;;;19.31;100.00;100257.59;5053304;28;20059;-84
2023/06/24 08:47:09;;;;;;;14.50;13.00;;;;;;;19.36;100.00;100263.38;5053682;28;20388;-84
2023/06/24 08:49:46;;;;;;;15.25;13.32;;;;;;;19.29;100.00;100250.72;5053897;28;20078;-84
2023/06/24 08:52:14;;;;;;;16.23;14.32;;;;;;;19.35;100.00;100258.22;5053432;28;20047;-84
2023/06/24 08:54:41;;;;;;;15.75;14.25;;;;;;;19.37;100.00;100261.56;5053284;28;20060;-84
2023/06/24 08:57:08;;;;;;;15.05;13.52;;;;;;;19.15;100.00;100230.63;5053250;28;20064;-84
2023/06/24 08:59:34;;;;;;;15.23;13.40;;;;;;;19.36;100.00;100265.19;5053597;28;20075;-84
2023/06/24 09:02:00;;;;;;;16.52;14.82;;;;;;;19.47;100.00;100273.16;5053427;28;20033;-84
2023/06/24 09:04:25;;;;;;;15.48;13.93;;;;;;;19.47;100.00;100270.53;5053095;28;20035;-84
2023/06/24 09:06:50;;;;;;;17.63;15.05;;;;;;;19.53;100.00;100272.69;5051293;28;20025;-87
2023/06/24 09:09:23;;;;;;;16.15;14.15;;;;;;;19.40;100.00;100237.59;5034691;28;20404;-83
2023/06/24 09:12:14;;;;;;;15.98;14.30;;;;;;;19.70;100.00;100276.75;5032195;28;20060;-83
2023/06/24 09:14:40;;;;;;;;;;;;;;;19.85;100.00;100278.28;5063694;28;20032;-84
2023/06/24 09:17:06;;;;;;;15.65;13.02;;;;;;;19.80;100.00;100237.25;5065366;28;19927;-87
2023/06/24 09:19:36;;;;;;;18.00;14.65;;;;;;;19.99;100.00;100247.28;5053553;28;20043;-86
2023/06/24 09:22:03;;;;;;;17.02;15.32;;;;;;;20.18;100.00;100256.34;5066282;28;20094;-86
2023/06/24 09:24:30;;;;;;;18.33;16.30;;;;;;;20.36;100.00;100269.13;5033168;28;20124;-86
2023/06/24 09:26:59;;;;;;;16.95;14.77;;;;;;;20.39;100.00;100259.16;5037521;28;20029;-83
2023/06/24 09:29:31;;;;;;;14.57;13.18;;;;;;;20.62;100.00;100278.53;5070105;28;20033;-83
2023/06/24 09:31:59;;;;;;;16.35;14.02;;;;;;;20.56;100.00;100254.34;5070251;28;20476;-82
2023/06/24 09:34:24;;;;;;;14.70;13.30;;;;;;;20.68;100.00;100266.63;5069953;28;20031;-82
2023/06/24 09:36:55;;;;;;;15.75;13.70;;;;;;;20.72;100.00;100260.13;5069998;28;20084;-82
2023/06/24 09:39:27;;;;;;;15.68;14.07;;;;;;;20.79;100.00;100256.03;5070180;28;20040;-82
2023/06/24 09:41:53;;;;;;;17.23;13.95;;;;;;;20.98;100.00;100268.63;5053599;28;20119;-82
2023/06/24 09:44:21;;;;;;;14.68;13.27;;;;;;;21.13;100.00;100274.50;5069264;28;20128;-82
2023/06/24 09:46:47;;;;;;;14.52;13.00;;;;;;;21.24;100.00;100261.25;5070119;28;20094;-82
2023/06/24 09:49:12;;;;;;;14.90;13.50;;;;;;;21.46;100.00;100252.41;5069854;28;20028;-82
2023/06/24 09:51:40;;;;;;;15.18;13.57;;;;;;;21.78;100.00;100262.97;5048509;28;20116;-82
2023/06/24 09:54:06;;;;;;;14.50;13.10;;;;;;;21.81;99.18;100240.66;5032655;28;20552;-82
2023/06/24 09:56:36;;;;;;;15.18;13.70;;;;;;;22.00;98.64;100258.53;5032337;28;20033;-81
2023/06/24 09:59:04;;;;;;;14.88;13.43;;;;;;;22.09;99.07;100255.09;5032508;28;20083;-81
2023/06/24 10:01:32;;;;;;;13.88;12.32;;;;;;;22.11;99.60;100243.38;5032162;28;20033;-81
2023/06/24 10:03:58;;;;;;;15.68;14.07;;;;;;;22.19;98.50;100266.63;5032495;28;20026;-82
2023/06/24 10:06:25;;;;;;;14.07;12.68;;;;;;;22.08;99.73;100245.44;5032558;28;20025;-82
2023/06/24 10:08:51;;;;;;;14.93;13.43;;;;;;;22.15;100.00;100254.59;5031101;28;20040;-81
2023/06/24 10:11:16;;;;;;;14.13;12.82;;;;;;;22.07;97.68;100244.59;5032046;28;20025;-81
2023/06/24 10:13:42;;;;;;;13.40;12.18;;;;;;;22.12;97.62;100242.44;5032152;28;20644;-82
2023/06/24 10:16:07;;;;;;;14.15;12.82;;;;;;;22.15;99.06;100233.38;5032203;28;20493;-82
2023/06/24 10:18:37;;;;;;;13.68;12.25;;;;;;;22.20;97.95;100235.63;5031986;28;20025;-82
2023/06/24 10:21:04;;;;;;;17.15;12.95;;;;;;;22.53;96.58;100261.06;5032059;28;20035;-82
2023/06/24 10:23:42;;;;;;;12.55;11.27;;;;;;;22.49;95.91;100233.09;5032140;28;20025;-82
2023/06/24 10:26:10;;;;;;;12.93;10.32;;;;;;;22.64;94.03;100240.56;5032214;28;20033;-82
2023/06/24 10:29:17;;;;;;;11.10;9.60;;;;;;;22.91;91.98;100260.38;5032030;28;20101;-81
2023/06/24 10:31:48;;;;;;;11.50;10.23;;;;;;;23.06;89.74;100259.03;5029682;28;20044;-81
2023/06/24 10:34:22;;;;;;;11.07;9.98;;;;;;;23.28;89.94;100260.59;5029329;28;20030;-81
2023/06/24 10:37:01;;;;;;;12.63;10.68;;;;;;;23.25;87.35;100238.78;5029389;28;20073;-82
2023/06/24 10:39:44;;;;;;;9.95;8.95;;;;;;;23.34;88.72;100253.88;5029356;28;20030;-82
2023/06/24 10:42:34;;;;;;;11.05;9.90;;;;;;;23.31;87.42;100252.38;5029354;28;20488;-81
2023/06/24 10:45:26;;;;;;;11.25;9.82;;;;;;;23.24;87.51;100248.56;5029549;28;20497;-81
2023/06/24 10:48:00;;;;;;;11.73;9.85;;;;;;;23.15;89.96;100244.94;4951518;29;20039;-82
2023/06/24 10:50:25;;;;;;;10.40;9.40;;;;;;;23.04;90.07;100215.81;4951186;28;20031;-82
2023/06/24 10:52:56;;;;;;;10.73;9.73;;;;;;;23.21;89.55;100211.63;4951643;29;20142;-81
2023/06/24 10:55:24;;;;;;;12.57;10.37;;;;;;;23.40;88.46;100210.81;4952625;28;20098;-82
2023/06/24 10:57:50;;;;;;;9.70;8.70;;;;;;;23.52;86.08;100233.63;4955450;29;20449;-81
2023/06/24 11:00:15;;;;;;;10.48;9.23;;;;;;;23.36;85.42;100206.75;4955190;28;20123;-81
2023/06/24 11:02:41;;;;;;;10.20;9.20;;;;;;;23.35;86.48;100221.88;4962867;28;20094;-85
2023/06/24 11:05:07;;;;;;;10.35;9.35;;;;;;;23.31;82.64;100223.13;4974546;28;20126;-86
2023/06/24 11:07:35;;;;;;;10.38;9.07;;;;;;;22.95;82.48;100198.03;4957953;28;20388;-87
2023/06/24 11:10:06;;;;;;;10.05;9.13;;;;;;;23.05;84.63;100219.31;4958209;28;20031;-83